Time;durP1;ratioP1;P1;durP2;ratioP2;P2;SDS_P1;SDS_P2;PMS_P1;PMS_P2;Temp;Humidity;BMP_temperature;BMP_pressure;BME280_temperature;BME280_humidity;BME280_pressure;Samples;Min_cycle;Max_cycle;Signal;HPM_P1;HPM_P2
2022/02/18 00:20:42;;;;;;;9.05;7.68;;;;;;;;;;5164200;27;20068;-60
2022/02/18 00:23:09;;;;;;;9.25;8.10;;;;;;;;;;5177666;27;20069;-60
2022/02/18 00:25:35;;;;;;;8.80;7.87;;;;;;;;;;5179779;27;20104;-60
2022/02/18 00:28:02;;;;;;;8.52;7.62;;;;;;;;;;5179626;27;20429;-60
2022/02/18 00:30:30;;;;;;;9.38;7.70;;;;;;;;;;5179624;27;20086;-60
2022/02/18 00:32:56;;;;;;;10.48;7.87;;;;;;;;;;5179592;27;20076;-60
2022/02/18 00:35:22;;;;;;;10.27;7.72;;;;;;;;;;5179661;27;20075;-60
2022/02/18 00:37:52;;;;;;;9.93;8.38;;;;;;;;;;5179666;27;20082;-61
2022/02/18 00:40:18;;;;;;;9.07;7.75;;;;;;;;;;5179491;27;20089;-61
2022/02/18 00:42:44;;;;;;;9.48;7.43;;;;;;;;;;5179532;27;20088;-61
2022/02/18 00:45:11;;;;;;;9.40;7.70;;;;;;;;;;5179586;27;20082;-62
2022/02/18 00:47:37;;;;;;;10.13;8.40;;;;;;;;;;5179456;27;20523;-59
2022/02/18 00:50:04;;;;;;;10.98;8.52;;;;;;;;;;5179539;27;20067;-58
2022/02/18 00:52:30;;;;;;;8.88;7.87;;;;;;;;;;5179467;27;20434;-60
2022/02/18 00:54:56;;;;;;;8.77;7.68;;;;;;;;;;5179510;27;20074;-61
2022/02/18 00:57:22;;;;;;;9.57;8.57;;;;;;;;;;5179407;27;20572;-62
2022/02/18 00:59:48;;;;;;;10.07;8.35;;;;;;;;;;5160639;27;20155;-61
2022/02/18 01:02:15;;;;;;;9.07;8.05;;;;;;;;;;5179331;27;20086;-60
2022/02/18 01:04:41;;;;;;;9.70;8.70;;;;;;;;;;5179290;27;20085;-60
2022/02/18 01:07:07;;;;;;;9.65;8.43;;;;;;;;;;5179401;27;20070;-60
2022/02/18 01:09:33;;;;;;;9.35;8.27;;;;;;;;;;5179268;27;20395;-60
2022/02/18 01:11:59;;;;;;;9.80;8.70;;;;;;;;;;5179418;27;20066;-61
2022/02/18 01:14:26;;;;;;;13.07;9.23;;;;;;;;;;5179345;27;20106;-60
2022/02/18 01:16:52;;;;;;;10.30;8.65;;;;;;;;;;5179372;27;20097;-60
2022/02/18 01:19:18;;;;;;;12.07;8.88;;;;;;;;;;5179352;27;20074;-60
2022/02/18 01:21:45;;;;;;;10.13;8.60;;;;;;;;;;5179236;27;20086;-59
2022/02/18 01:24:11;;;;;;;13.30;9.38;;;;;;;;;;5179350;27;20082;-59
2022/02/18 01:26:37;;;;;;;10.98;8.82;;;;;;;;;;5160058;27;20086;-60
2022/02/18 01:29:03;;;;;;;10.57;9.38;;;;;;;;;;5160553;27;20160;-60
2022/02/18 01:31:29;;;;;;;13.70;9.63;;;;;;;;;;5160760;27;20133;-61
2022/02/18 01:33:57;;;;;;;11.02;8.85;;;;;;;;;;5160283;27;20110;-61
2022/02/18 01:36:25;;;;;;;10.95;9.18;;;;;;;;;;5179556;27;20537;-61
2022/02/18 01:38:51;;;;;;;10.20;9.00;;;;;;;;;;5179266;27;20058;-61
2022/02/18 01:41:18;;;;;;;9.90;8.90;;;;;;;;;;5179549;27;20085;-61
2022/02/18 01:44:10;;;;;;;11.70;9.93;;;;;;;;;;5179279;27;20087;-60
2022/02/18 01:46:36;;;;;;;9.68;8.65;;;;;;;;;;5176560;27;20094;-60
2022/02/18 01:49:02;;;;;;;10.48;8.80;;;;;;;;;;5179264;27;20074;-60
2022/02/18 01:51:28;;;;;;;12.18;8.68;;;;;;;;;;5179477;27;20160;-60
2022/02/18 01:53:55;;;;;;;10.60;9.20;;;;;;;;;;5179218;27;20081;-61
2022/02/18 01:56:22;;;;;;;11.23;8.75;;;;;;;;;;5179154;27;20171;-60
2022/02/18 01:58:48;;;;;;;13.00;9.45;;;;;;;;;;5179444;27;20067;-60
2022/02/18 02:01:14;;;;;;;12.55;8.60;;;;;;;;;;5179520;27;20469;-60
2022/02/18 02:03:41;;;;;;;10.52;8.02;;;;;;;;;;5179205;27;20068;-60
2022/02/18 02:06:08;;;;;;;10.43;9.18;;;;;;;;;;5160256;27;20090;-61
2022/02/18 02:08:36;;;;;;;9.35;8.35;;;;;;;;;;5160356;27;20102;-60
2022/02/18 02:11:02;;;;;;;10.70;9.18;;;;;;;;;;5179192;27;20112;-60
2022/02/18 02:13:34;;;;;;;11.45;9.65;;;;;;;;;;5179283;27;20708;-61
2022/02/18 02:16:00;;;;;;;10.27;9.18;;;;;;;;;;5180229;27;20106;-60
2022/02/18 02:18:26;;;;;;;11.63;9.25;;;;;;;;;;5161458;27;20166;-60
2022/02/18 02:20:53;;;;;;;10.65;9.02;;;;;;;;;;5161732;27;20078;-60
2022/02/18 02:23:19;;;;;;;11.50;9.00;;;;;;;;;;5178898;27;20505;-60
2022/02/18 02:25:45;;;;;;;12.93;9.57;;;;;;;;;;5180579;27;20514;-60
2022/02/18 02:28:12;;;;;;;11.60;9.70;;;;;;;;;;5180636;27;20101;-61
2022/02/18 02:30:38;;;;;;;12.68;9.45;;;;;;;;;;5180614;27;20082;-60
2022/02/18 02:33:05;;;;;;;11.80;8.65;;;;;;;;;;5180711;27;20259;-61
2022/02/18 02:35:30;;;;;;;10.38;8.90;;;;;;;;;;5161441;27;20082;-60
2022/02/18 02:37:56;;;;;;;11.07;9.00;;;;;;;;;;5180445;27;20066;-61
2022/02/18 02:40:23;;;;;;;10.82;8.20;;;;;;;;;;5180446;27;20074;-61
2022/02/18 02:42:49;;;;;;;11.48;9.10;;;;;;;;;;5180479;27;20073;-60
2022/02/18 02:45:16;;;;;;;10.32;8.98;;;;;;;;;;5180592;27;20078;-61
2022/02/18 02:47:44;;;;;;;10.65;8.70;;;;;;;;;;5180192;27;20074;-62
2022/02/18 02:50:10;;;;;;;11.32;8.85;;;;;;;;;;5180165;27;20070;-60
2022/02/18 02:52:36;;;;;;;9.20;7.62;;;;;;;;;;5180084;27;20070;-60
2022/02/18 02:55:04;;;;;;;11.77;9.77;;;;;;;;;;5180343;27;20077;-60
2022/02/18 02:57:30;;;;;;;12.05;9.65;;;;;;;;;;5180044;27;20098;-60
2022/02/18 02:59:56;;;;;;;11.95;9.52;;;;;;;;;;5180177;27;20570;-60
2022/02/18 03:02:22;;;;;;;12.07;8.85;;;;;;;;;;5180146;27;20148;-60
2022/02/18 03:04:48;;;;;;;9.70;8.45;;;;;;;;;;5180186;27;20177;-60
2022/02/18 03:07:14;;;;;;;11.20;8.82;;;;;;;;;;5180212;27;20062;-60
2022/02/18 03:09:40;;;;;;;11.02;8.75;;;;;;;;;;5180043;27;20488;-60
2022/02/18 03:12:07;;;;;;;11.00;8.68;;;;;;;;;;5180450;27;20172;-60
2022/02/18 03:14:33;;;;;;;14.20;10.85;;;;;;;;;;5179913;27;20504;-64
2022/02/18 03:16:59;;;;;;;11.20;9.32;;;;;;;;;;5180126;27;20059;-64
2022/02/18 03:19:25;;;;;;;13.18;9.07;;;;;;;;;;5180278;27;20122;-59
2022/02/18 03:21:51;;;;;;;11.00;8.70;;;;;;;;;;5160572;27;20476;-60
2022/02/18 03:24:18;;;;;;;10.00;8.05;;;;;;;;;;5179973;27;20074;-59
2022/02/18 03:26:44;;;;;;;9.85;8.32;;;;;;;;;;5179876;27;20090;-59
2022/02/18 03:29:11;;;;;;;11.50;8.90;;;;;;;;;;5179679;27;20171;-59
2022/02/18 03:31:37;;;;;;;10.27;9.18;;;;;;;;;;5180001;27;20094;-59
2022/02/18 03:34:03;;;;;;;9.48;8.32;;;;;;;;;;5180174;27;20083;-58
2022/02/18 03:36:29;;;;;;;9.82;8.82;;;;;;;;;;5180245;27;20529;-58
2022/02/18 03:38:55;;;;;;;12.02;8.48;;;;;;;;;;5160885;27;20433;-58
2022/02/18 03:41:22;;;;;;;11.30;9.13;;;;;;;;;;5179883;27;20132;-59
2022/02/18 03:43:48;;;;;;;9.65;8.35;;;;;;;;;;5179739;27;20179;-59
2022/02/18 03:46:15;;;;;;;10.25;8.63;;;;;;;;;;5179832;27;20090;-62
2022/02/18 03:48:41;;;;;;;11.12;8.60;;;;;;;;;;5160984;27;20081;-63
2022/02/18 03:51:07;;;;;;;10.43;7.50;;;;;;;;;;5180223;27;20086;-62
2022/02/18 03:53:33;;;;;;;11.30;8.00;;;;;;;;;;5178543;27;20088;-62
2022/02/18 03:55:59;;;;;;;9.30;8.02;;;;;;;;;;5179854;27;20090;-57
2022/02/18 03:58:28;;;;;;;11.75;8.15;;;;;;;;;;5160680;27;20168;-60
2022/02/18 04:00:54;;;;;;;10.55;8.15;;;;;;;;;;5179980;27;20093;-59
2022/02/18 04:03:20;;;;;;;11.05;8.00;;;;;;;;;;5179665;27;20070;-62
2022/02/18 04:05:47;;;;;;;10.45;8.85;;;;;;;;;;5179955;27;20090;-59
2022/02/18 04:08:13;;;;;;;10.40;9.30;;;;;;;;;;5179687;27;20069;-62
2022/02/18 04:10:39;;;;;;;9.80;8.52;;;;;;;;;;5179682;27;20066;-61
2022/02/18 04:13:05;;;;;;;9.07;8.07;;;;;;;;;;5179658;27;20089;-61
2022/02/18 04:15:31;;;;;;;10.80;8.60;;;;;;;;;;5179569;27;20089;-60
2022/02/18 04:17:57;;;;;;;9.68;8.43;;;;;;;;;;5160738;27;20069;-60
2022/02/18 04:20:23;;;;;;;10.00;8.07;;;;;;;;;;5179555;27;20161;-60
2022/02/18 04:22:49;;;;;;;10.40;8.50;;;;;;;;;;5180014;27;20070;-60
2022/02/18 04:25:15;;;;;;;10.90;8.20;;;;;;;;;;5160484;27;20507;-59
2022/02/18 04:27:42;;;;;;;11.02;9.00;;;;;;;;;;5160586;27;20267;-59
2022/02/18 04:30:08;;;;;;;12.10;9.40;;;;;;;;;;5160241;27;20081;-59
2022/02/18 04:32:34;;;;;;;10.95;8.63;;;;;;;;;;5179671;27;20501;-60
2022/02/18 04:35:00;;;;;;;9.07;7.80;;;;;;;;;;5179633;27;20078;-59
2022/02/18 04:37:26;;;;;;;13.02;8.57;;;;;;;;;;5179373;27;20094;-60
2022/02/18 04:39:52;;;;;;;8.50;7.60;;;;;;;;;;5179386;27;20058;-60
2022/02/18 04:42:20;;;;;;;9.75;7.18;;;;;;;;;;5177862;27;20082;-60
2022/02/18 04:44:46;;;;;;;13.23;9.30;;;;;;;;;;5179382;27;20181;-60
2022/02/18 04:47:12;;;;;;;9.45;7.78;;;;;;;;;;5179546;27;20425;-59
2022/02/18 04:49:38;;;;;;;8.52;7.62;;;;;;;;;;5179571;27;20101;-59
2022/02/18 04:52:04;;;;;;;10.05;7.55;;;;;;;;;;5179563;27;20105;-60
2022/02/18 04:54:30;;;;;;;10.88;8.50;;;;;;;;;;5179557;27;20085;-58
2022/02/18 04:56:56;;;;;;;8.18;7.25;;;;;;;;;;5179485;27;20086;-60
2022/02/18 04:59:22;;;;;;;11.27;7.03;;;;;;;;;;5179447;27;20216;-59
2022/02/18 05:01:48;;;;;;;15.13;7.40;;;;;;;;;;5143429;27;20102;-60
2022/02/18 05:04:14;;;;;;;8.35;7.00;;;;;;;;;;5179747;27;20070;-59
2022/02/18 05:06:40;;;;;;;9.77;7.50;;;;;;;;;;5180049;27;20132;-57
2022/02/18 05:09:06;;;;;;;8.93;7.93;;;;;;;;;;5179680;27;20481;-60
2022/02/18 05:11:32;;;;;;;9.65;7.32;;;;;;;;;;5179518;27;20166;-60
2022/02/18 05:13:58;;;;;;;7.90;6.97;;;;;;;;;;5179570;27;20117;-60
2022/02/18 05:16:24;;;;;;;9.50;6.75;;;;;;;;;;5179575;27;20440;-61
2022/02/18 05:18:52;;;;;;;10.45;7.20;;;;;;;;;;5160103;27;20501;-60
2022/02/18 05:21:19;;;;;;;8.63;7.15;;;;;;;;;;5179239;27;20096;-59
2022/02/18 05:23:45;;;;;;;9.13;6.80;;;;;;;;;;5179246;27;20070;-60
2022/02/18 05:26:11;;;;;;;10.15;7.20;;;;;;;;;;5179552;27;20081;-60
2022/02/18 05:28:37;;;;;;;7.62;6.53;;;;;;;;;;5179207;27;20097;-60
2022/02/18 05:31:03;;;;;;;9.05;6.78;;;;;;;;;;5179143;27;20103;-59
2022/02/18 05:33:29;;;;;;;8.23;6.43;;;;;;;;;;5179260;27;20098;-60
2022/02/18 05:35:56;;;;;;;8.98;7.20;;;;;;;;;;5179436;27;20437;-59
2022/02/18 05:38:22;;;;;;;8.35;6.40;;;;;;;;;;5179321;27;20132;-60
2022/02/18 05:40:48;;;;;;;9.88;6.90;;;;;;;;;;5179338;27;20112;-60
2022/02/18 05:43:14;;;;;;;8.60;6.43;;;;;;;;;;5160311;27;20113;-60
2022/02/18 05:45:40;;;;;;;8.55;7.12;;;;;;;;;;5179350;27;20106;-59
2022/02/18 05:48:06;;;;;;;11.05;6.97;;;;;;;;;;5179337;27;20066;-60
2022/02/18 05:50:32;;;;;;;9.63;6.70;;;;;;;;;;5180388;27;20185;-60
2022/02/18 05:52:58;;;;;;;9.23;7.78;;;;;;;;;;5180682;27;20164;-60
2022/02/18 05:55:24;;;;;;;12.18;7.65;;;;;;;;;;5180713;27;20072;-60
2022/02/18 05:57:50;;;;;;;9.98;6.68;;;;;;;;;;5180614;27;20086;-60
2022/02/18 06:00:16;;;;;;;9.43;6.28;;;;;;;;;;5180592;27;20501;-60
2022/02/18 06:02:43;;;;;;;11.48;6.90;;;;;;;;;;5180643;27;20077;-60
2022/02/18 06:05:10;;;;;;;7.28;6.35;;;;;;;;;;5161730;27;20520;-60
2022/02/18 06:07:37;;;;;;;11.00;7.22;;;;;;;;;;5144170;27;20102;-60
2022/02/18 06:10:03;;;;;;;8.70;6.07;;;;;;;;;;5161497;27;20073;-58
2022/02/18 06:12:29;;;;;;;10.52;6.47;;;;;;;;;;5180606;27;20197;-60
2022/02/18 06:14:55;;;;;;;9.75;7.05;;;;;;;;;;5180547;27;20176;-60
2022/02/18 06:17:21;;;;;;;8.60;6.60;;;;;;;;;;5161168;27;20077;-60
2022/02/18 06:19:48;;;;;;;10.73;6.30;;;;;;;;;;5180461;27;20470;-60
2022/02/18 06:22:15;;;;;;;8.50;6.40;;;;;;;;;;5180405;27;20085;-58
2022/02/18 06:24:42;;;;;;;7.95;6.47;;;;;;;;;;5180662;27;20460;-59
2022/02/18 06:27:08;;;;;;;9.80;6.50;;;;;;;;;;5161434;27;20492;-59
2022/02/18 06:29:34;;;;;;;7.35;6.18;;;;;;;;;;5180138;27;20070;-60
2022/02/18 06:32:02;;;;;;;11.75;6.87;;;;;;;;;;5161634;27;20402;-60
2022/02/18 06:34:29;;;;;;;9.20;6.57;;;;;;;;;;5180207;27;20082;-60
2022/02/18 06:36:55;;;;;;;7.95;6.80;;;;;;;;;;5180458;27;20544;-60
2022/02/18 06:39:22;;;;;;;7.90;6.25;;;;;;;;;;5180271;27;20706;-60
2022/02/18 06:41:49;;;;;;;9.25;6.43;;;;;;;;;;5180390;27;20090;-60
2022/02/18 06:44:15;;;;;;;7.35;6.20;;;;;;;;;;5180398;27;20077;-60
2022/02/18 06:46:42;;;;;;;11.50;6.00;;;;;;;;;;5180503;27;20101;-60
2022/02/18 06:49:08;;;;;;;10.98;5.93;;;;;;;;;;5180369;27;20085;-61
2022/02/18 06:51:34;;;;;;;11.60;6.53;;;;;;;;;;5180339;27;20164;-58
2022/02/18 06:54:01;;;;;;;8.55;6.20;;;;;;;;;;5180284;27;20084;-60
2022/02/18 06:56:27;;;;;;;8.60;6.70;;;;;;;;;;5160951;27;20085;-61
2022/02/18 06:58:54;;;;;;;10.50;6.93;;;;;;;;;;5180165;27;20082;-61
2022/02/18 07:01:20;;;;;;;7.32;6.40;;;;;;;;;;5160849;27;20406;-61
2022/02/18 07:03:46;;;;;;;10.45;6.47;;;;;;;;;;5180173;27;20493;-61
2022/02/18 07:06:12;;;;;;;9.95;6.10;;;;;;;;;;5180411;27;20496;-61
2022/02/18 07:08:38;;;;;;;10.45;6.60;;;;;;;;;;5180135;27;20073;-61
2022/02/18 07:11:04;;;;;;;7.35;6.10;;;;;;;;;;5180532;27;20549;-60
2022/02/18 07:13:30;;;;;;;15.05;6.57;;;;;;;;;;5180158;27;20068;-61
2022/02/18 07:15:57;;;;;;;9.55;6.90;;;;;;;;;;5180093;27;20476;-60
2022/02/18 07:18:23;;;;;;;7.20;5.70;;;;;;;;;;5180024;27;20101;-60
2022/02/18 07:20:50;;;;;;;7.62;5.55;;;;;;;;;;5161286;27;20168;-60
2022/02/18 07:23:16;;;;;;;7.07;6.25;;;;;;;;;;5160956;27;20467;-61
2022/02/18 07:25:42;;;;;;;9.82;6.68;;;;;;;;;;5180163;27;20154;-59
2022/02/18 07:28:08;;;;;;;7.10;5.43;;;;;;;;;;5160995;27;20485;-60
2022/02/18 07:30:34;;;;;;;9.50;5.72;;;;;;;;;;5180006;27;20078;-61
2022/02/18 07:33:00;;;;;;;10.13;5.47;;;;;;;;;;5179980;27;20057;-60
2022/02/18 07:35:32;;;;;;;7.78;5.03;;;;;;;;;;5180014;27;20176;-61
2022/02/18 07:38:02;;;;;;;11.32;5.90;;;;;;;;;;5179995;27;20093;-60
2022/02/18 07:40:28;;;;;;;6.65;4.90;;;;;;;;;;5179938;27;20108;-61
2022/02/18 07:42:55;;;;;;;9.52;5.40;;;;;;;;;;5179931;27;20163;-61
2022/02/18 07:45:22;;;;;;;8.20;5.65;;;;;;;;;;5180031;27;20072;-61
2022/02/18 07:47:57;;;;;;;10.02;5.80;;;;;;;;;;5179969;27;20555;-58
2022/02/18 07:50:24;;;;;;;12.05;5.55;;;;;;;;;;5160722;27;20082;-56
2022/02/18 07:52:50;;;;;;;11.05;5.00;;;;;;;;;;5160717;27;20070;-57
2022/02/18 07:55:16;;;;;;;8.27;5.28;;;;;;;;;;5179812;27;20085;-60
2022/02/18 07:57:43;;;;;;;10.50;5.25;;;;;;;;;;5179778;27;20519;-61
2022/02/18 08:00:09;;;;;;;10.75;5.15;;;;;;;;;;5160772;27;20177;-58
2022/02/18 08:02:35;;;;;;;8.43;5.50;;;;;;;;;;5179881;27;20223;-58
2022/02/18 08:05:01;;;;;;;8.80;5.32;;;;;;;;;;5179853;27;20081;-57
2022/02/18 08:07:28;;;;;;;11.60;5.75;;;;;;;;;;5179814;27;20102;-57
2022/02/18 08:09:54;;;;;;;10.63;5.40;;;;;;;;;;5179636;27;20410;-57
2022/02/18 08:12:20;;;;;;;11.25;5.20;;;;;;;;;;5179474;27;20493;-58
2022/02/18 08:14:46;;;;;;;10.30;4.85;;;;;;;;;;5179758;27;20109;-57
2022/02/18 08:17:12;;;;;;;7.62;3.67;;;;;;;;;;5179835;27;20096;-57
2022/02/18 08:19:38;;;;;;;8.52;3.40;;;;;;;;;;5179908;27;20094;-58
2022/02/18 08:22:04;;;;;;;10.48;4.80;;;;;;;;;;5179925;27;20078;-57
2022/02/18 08:24:31;;;;;;;14.38;5.12;;;;;;;;;;5179611;27;20500;-57
2022/02/18 08:26:57;;;;;;;10.52;4.95;;;;;;;;;;5179598;27;20090;-56
2022/02/18 08:29:24;;;;;;;6.87;3.72;;;;;;;;;;5179563;27;20482;-56
2022/02/18 08:31:54;;;;;;;11.93;4.75;;;;;;;;;;5179958;27;20062;-57
2022/02/18 08:34:22;;;;;;;9.60;5.20;;;;;;;;;;5179495;27;20069;-57
2022/02/18 08:36:49;;;;;;;7.40;3.37;;;;;;;;;;5179563;27;20148;-55
2022/02/18 08:39:15;;;;;;;9.23;3.85;;;;;;;;;;5179490;27;20081;-53
2022/02/18 08:41:41;;;;;;;9.18;3.58;;;;;;;;;;5179427;27;20416;-53
2022/02/18 08:44:08;;;;;;;7.18;3.65;;;;;;;;;;5179366;27;20488;-57
2022/02/18 08:46:34;;;;;;;9.35;3.67;;;;;;;;;;5179751;27;20417;-55
2022/02/18 08:49:03;;;;;;;7.18;3.12;;;;;;;;;;5179544;27;20437;-56
2022/02/18 08:51:29;;;;;;;9.02;4.50;;;;;;;;;;5179258;27;20497;-50
2022/02/18 08:53:55;;;;;;;5.97;3.97;;;;;;;;;;5179552;27;20082;-56
2022/02/18 08:56:21;;;;;;;9.25;4.10;;;;;;;;;;5179292;27;20150;-54
2022/02/18 08:58:47;;;;;;;6.22;3.37;;;;;;;;;;5179856;27;20066;-54
2022/02/18 09:01:13;;;;;;;2.60;2.00;;;;;;;;;;5179899;27;20062;-55
2022/02/18 09:03:39;;;;;;;4.37;3.15;;;;;;;;;;5179416;27;20105;-51
2022/02/18 09:06:06;;;;;;;5.25;3.42;;;;;;;;;;5179629;27;20505;-56
2022/02/18 09:08:32;;;;;;;3.55;2.40;;;;;;;;;;5179419;27;20169;-53
2022/02/18 09:10:58;;;;;;;2.12;1.83;;;;;;;;;;5179252;27;20086;-53
2022/02/18 09:13:25;;;;;;;6.53;3.58;;;;;;;;;;5142862;27;20093;-55
2022/02/18 09:15:52;;;;;;;5.45;3.15;;;;;;;;;;5160551;27;20258;-55
2022/02/18 09:18:19;;;;;;;6.30;3.30;;;;;;;;;;5160097;27;20100;-55
2022/02/18 09:20:47;;;;;;;4.35;2.08;;;;;;;;;;5179173;27;20161;-56
2022/02/18 09:23:14;;;;;;;1.90;1.80;;;;;;;;;;5179286;27;20068;-55
2022/02/18 09:25:40;;;;;;;10.73;3.75;;;;;;;;;;5179473;27;20089;-53
2022/02/18 09:28:07;;;;;;;2.53;1.90;;;;;;;;;;5179537;27;20505;-56
2022/02/18 09:30:41;;;;;;;3.58;2.28;;;;;;;;;;5179292;27;20232;-55
2022/02/18 09:33:07;;;;;;;3.30;2.37;;;;;;;;;;5179556;27;20465;-54
2022/02/18 09:35:33;;;;;;;6.53;3.25;;;;;;;;;;5160497;27;20101;-56
2022/02/18 09:37:59;;;;;;;7.45;2.95;;;;;;;;;;5179387;27;20078;-56
2022/02/18 09:40:25;;;;;;;3.30;2.15;;;;;;;;;;5179270;27;20167;-56
2022/02/18 09:42:52;;;;;;;4.97;2.50;;;;;;;;;;5160221;27;20066;-53
2022/02/18 09:45:18;;;;;;;4.93;2.20;;;;;;;;;;5179432;27;20090;-56
2022/02/18 09:47:46;;;;;;;3.78;2.20;;;;;;;;;;5160640;27;20059;-57
2022/02/18 09:50:12;;;;;;;1.58;1.30;;;;;;;;;;5160371;27;20080;-56
2022/02/18 09:52:38;;;;;;;5.57;2.15;;;;;;;;;;5160512;27;20086;-56
2022/02/18 09:55:05;;;;;;;8.15;2.70;;;;;;;;;;5179253;27;20129;-56
2022/02/18 09:57:34;;;;;;;4.22;2.50;;;;;;;;;;5179221;27;20077;-56
2022/02/18 10:00:00;;;;;;;5.45;2.33;;;;;;;;;;5179235;27;20175;-57
2022/02/18 10:02:26;;;;;;;11.05;4.90;;;;;;;;;;5160006;27;20101;-56
2022/02/18 10:04:52;;;;;;;9.00;4.25;;;;;;;;;;5179249;27;20398;-70
2022/02/18 10:07:19;;;;;;;12.32;4.10;;;;;;;;;;5179510;27;20647;-58
2022/02/18 10:09:47;;;;;;;8.10;4.78;;;;;;;;;;5159995;27;20489;-55
2022/02/18 10:12:14;;;;;;;19.05;6.55;;;;;;;;;;5179130;27;20178;-51
2022/02/18 10:15:09;;;;;;;17.70;5.97;;;;;;;;;;5178997;27;20094;-58
2022/02/18 10:17:43;;;;;;;10.80;6.37;;;;;;;;;;5178999;27;20145;-56
2022/02/18 10:20:16;;;;;;;9.27;5.00;;;;;;;;;;5179035;27;20623;-59
2022/02/18 10:23:05;;;;;;;11.82;5.28;;;;;;;;;;5179367;27;20085;-57
2022/02/18 10:25:33;;;;;;;10.10;5.15;;;;;;;;;;5179173;27;20101;-57
2022/02/18 10:28:00;;;;;;;11.50;4.70;;;;;;;;;;5179205;27;20085;-59
2022/02/18 10:30:28;;;;;;;8.75;4.28;;;;;;;;;;5179133;27;20264;-58
2022/02/18 10:32:55;;;;;;;7.15;4.70;;;;;;;;;;5179094;27;20161;-59
2022/02/18 10:35:32;;;;;;;16.87;4.93;;;;;;;;;;5179186;27;20082;-53
2022/02/18 10:37:59;;;;;;;10.85;4.93;;;;;;;;;;5180359;27;20058;-53
2022/02/18 10:40:25;;;;;;;10.23;5.10;;;;;;;;;;5180266;27;20085;-57
2022/02/18 10:42:52;;;;;;;7.95;4.82;;;;;;;;;;5180307;27;20096;-56
2022/02/18 10:45:23;;;;;;;6.53;4.82;;;;;;;;;;5180323;27;20493;-55
2022/02/18 10:48:19;;;;;;;9.73;4.43;;;;;;;;;;5180313;27;20180;-53
2022/02/18 10:51:05;;;;;;;9.10;4.57;;;;;;;;;;5180258;27;20070;-55
2022/02/18 10:53:35;;;;;;;8.23;3.92;;;;;;;;;;5180266;27;20090;-57
2022/02/18 10:56:04;;;;;;;11.63;5.30;;;;;;;;;;5180368;27;20081;-57
2022/02/18 10:58:57;;;;;;;8.57;4.95;;;;;;;;;;5180257;27;20077;-58
2022/02/18 11:01:25;;;;;;;9.52;6.03;;;;;;;;;;5179997;27;20497;-56
2022/02/18 11:03:53;;;;;;;10.27;5.18;;;;;;;;;;5180237;27;20162;-56
2022/02/18 11:06:24;;;;;;;10.70;6.60;;;;;;;;;;5180035;27;20085;-57
2022/02/18 11:09:11;;;;;;;11.57;7.18;;;;;;;;;;5180099;27;20160;-56
2022/02/18 11:11:38;;;;;;;9.30;6.55;;;;;;;;;;5180001;27;20090;-57
2022/02/18 11:14:10;;;;;;;11.63;6.62;;;;;;;;;;5180456;27;20082;-57
2022/02/18 11:16:39;;;;;;;9.52;6.55;;;;;;;;;;5180163;27;20518;-53
2022/02/18 11:19:05;;;;;;;12.35;7.20;;;;;;;;;;5180113;27;20108;-57
2022/02/18 11:21:31;;;;;;;12.35;7.75;;;;;;;;;;5179871;27;20422;-55
2022/02/18 11:24:00;;;;;;;13.90;7.97;;;;;;;;;;5180056;27;20076;-61
2022/02/18 11:26:27;;;;;;;10.27;7.03;;;;;;;;;;5180148;27;20070;-55
2022/02/18 11:28:54;;;;;;;9.38;6.07;;;;;;;;;;5180020;27;20074;-57
2022/02/18 11:31:24;;;;;;;11.65;6.72;;;;;;;;;;5179735;27;20137;-56
2022/02/18 11:34:14;;;;;;;9.98;6.20;;;;;;;;;;5161342;27;20070;-55
2022/02/18 11:36:59;;;;;;;9.13;6.62;;;;;;;;;;5160853;27;20069;-58
2022/02/18 11:39:40;;;;;;;9.80;5.55;;;;;;;;;;5178877;27;20108;-56
2022/02/18 11:42:47;;;;;;;10.23;4.55;;;;;;;;;;5180170;27;20073;-57
2022/02/18 11:45:17;;;;;;;6.62;4.47;;;;;;;;;;5176440;27;20170;-61
2022/02/18 11:47:46;;;;;;;8.15;5.18;;;;;;;;;;5178565;27;20081;-54
2022/02/18 11:50:17;;;;;;;7.53;3.90;;;;;;;;;;5178544;27;20168;-61
2022/02/18 11:52:45;;;;;;;8.77;5.07;;;;;;;;;;5177351;27;20104;-57
2022/02/18 11:55:35;;;;;;;8.93;3.85;;;;;;;;;;5176682;27;20160;-57
2022/02/18 11:58:08;;;;;;;10.23;4.95;;;;;;;;;;5157223;27;20100;-56
2022/02/18 12:00:40;;;;;;;5.93;3.90;;;;;;;;;;5158160;27;20169;-56
2022/02/18 12:03:14;;;;;;;6.70;3.50;;;;;;;;;;5178707;27;20096;-57
2022/02/18 12:05:59;;;;;;;4.35;3.20;;;;;;;;;;5178884;27;20496;-54
2022/02/18 12:08:29;;;;;;;9.27;3.97;;;;;;;;;;5179431;27;20498;-56
2022/02/18 12:10:55;;;;;;;8.43;3.42;;;;;;;;;;5159394;27;20093;-54
2022/02/18 12:13:21;;;;;;;6.32;3.42;;;;;;;;;;5158701;27;20097;-54
2022/02/18 12:15:48;;;;;;;6.57;3.87;;;;;;;;;;5177872;27;20383;-55
2022/02/18 12:18:23;;;;;;;10.32;4.62;;;;;;;;;;5179893;27;20078;-55
2022/02/18 12:20:49;;;;;;;8.20;4.60;;;;;;;;;;5178954;27;20199;-50
2022/02/18 12:23:22;;;;;;;7.30;4.30;;;;;;;;;;5160481;27;20201;-50
2022/02/18 12:25:49;;;;;;;16.37;4.80;;;;;;;;;;5179341;27;20086;-55
2022/02/18 12:28:21;;;;;;;6.32;4.28;;;;;;;;;;5160156;27;20078;-48
2022/02/18 12:31:09;;;;;;;11.00;4.85;;;;;;;;;;5178814;27;20085;-55
2022/02/18 12:33:37;;;;;;;12.10;5.57;;;;;;;;;;5179490;27;20082;-58
2022/02/18 12:36:15;;;;;;;8.30;4.68;;;;;;;;;;5179246;27;20513;-57
2022/02/18 12:38:42;;;;;;;8.98;5.25;;;;;;;;;;5178245;27;20082;-58
2022/02/18 12:41:12;;;;;;;11.65;5.22;;;;;;;;;;5179568;27;20058;-55
2022/02/18 12:43:41;;;;;;;7.28;3.83;;;;;;;;;;5179242;27;20136;-56
2022/02/18 12:46:08;;;;;;;9.38;3.70;;;;;;;;;;5179532;27;20077;-56
2022/02/18 12:48:34;;;;;;;7.35;3.67;;;;;;;;;;5179227;27;20411;-54
2022/02/18 12:51:11;;;;;;;10.05;3.42;;;;;;;;;;5179380;27;20086;-55
2022/02/18 12:53:38;;;;;;;11.85;3.92;;;;;;;;;;5179443;27;20141;-54
2022/02/18 12:56:14;;;;;;;7.68;4.25;;;;;;;;;;5179486;27;20489;-53
2022/02/18 12:58:40;;;;;;;9.25;3.95;;;;;;;;;;5179116;27;20088;-53
2022/02/18 13:01:15;;;;;;;7.18;4.37;;;;;;;;;;5179683;27;20086;-53
2022/02/18 13:03:41;;;;;;;9.53;4.63;;;;;;;;;;5178886;27;20086;-53
2022/02/18 13:06:07;;;;;;;9.93;4.78;;;;;;;;;;5179628;27;20077;-53
2022/02/18 13:08:35;;;;;;;7.47;4.28;;;;;;;;;;5179322;27;20092;-54
2022/02/18 13:11:12;;;;;;;10.45;5.15;;;;;;;;;;5179214;27;20077;-54
2022/02/18 13:13:38;;;;;;;5.65;4.12;;;;;;;;;;5179334;27;20081;-53
2022/02/18 13:16:05;;;;;;;14.45;7.82;;;;;;;;;;5179498;27;20462;-49
2022/02/18 13:18:31;;;;;;;8.73;6.22;;;;;;;;;;5179233;27;20077;-54
2022/02/18 13:20:57;;;;;;;11.18;5.97;;;;;;;;;;5179092;27;20074;-53
2022/02/18 13:23:25;;;;;;;8.52;4.55;;;;;;;;;;5179517;27;20085;-53
2022/02/18 13:25:54;;;;;;;7.72;5.15;;;;;;;;;;5179640;27;20067;-54
2022/02/18 13:28:24;;;;;;;7.57;4.07;;;;;;;;;;5179600;27;20078;-55
2022/02/18 13:30:52;;;;;;;12.32;4.55;;;;;;;;;;5179704;27;20179;-54
2022/02/18 13:33:21;;;;;;;7.90;4.55;;;;;;;;;;5179317;27;20058;-54
2022/02/18 13:35:51;;;;;;;10.85;4.45;;;;;;;;;;5179290;27;20074;-54
2022/02/18 13:38:21;;;;;;;9.32;4.07;;;;;;;;;;5179243;27;20086;-54
2022/02/18 13:41:05;;;;;;;7.80;4.30;;;;;;;;;;5179359;27;20183;-54
2022/02/18 13:43:32;;;;;;;9.73;4.55;;;;;;;;;;5179255;27;20070;-53
2022/02/18 13:45:58;;;;;;;8.52;5.30;;;;;;;;;;5179199;27;20086;-54
2022/02/18 13:48:24;;;;;;;13.02;4.95;;;;;;;;;;5179380;27;20508;-54
2022/02/18 13:50:50;;;;;;;7.60;4.75;;;;;;;;;;5179407;27;20074;-53
2022/02/18 13:53:17;;;;;;;5.20;4.30;;;;;;;;;;5178386;27;20454;-54
2022/02/18 13:55:43;;;;;;;5.93;4.93;;;;;;;;;;5177307;27;20077;-50
2022/02/18 13:58:23;;;;;;;10.00;6.00;;;;;;;;;;5177543;27;20078;-51
2022/02/18 14:00:49;;;;;;;10.07;6.15;;;;;;;;;;5157767;27;20392;-54
2022/02/18 14:03:17;;;;;;;14.40;8.23;;;;;;;;;;5177227;27;20497;-55
2022/02/18 14:05:43;;;;;;;11.15;7.37;;;;;;;;;;5178643;27;20086;-53
2022/02/18 14:08:12;;;;;;;9.52;7.18;;;;;;;;;;5179124;27;20504;-55
2022/02/18 14:10:47;;;;;;;7.85;6.10;;;;;;;;;;5179404;27;20074;-54
2022/02/18 14:13:33;;;;;;;9.27;5.78;;;;;;;;;;5180587;27;20091;-55
2022/02/18 14:16:07;;;;;;;5.12;4.43;;;;;;;;;;5180728;27;20176;-53
2022/02/18 14:18:33;;;;;;;8.10;5.07;;;;;;;;;;5180333;27;20430;-54
2022/02/18 14:21:03;;;;;;;13.48;7.97;;;;;;;;;;5180227;27;20102;-53
2022/02/18 14:23:33;;;;;;;13.95;9.45;;;;;;;;;;5180428;27;20496;-54
2022/02/18 14:25:59;;;;;;;13.20;8.38;;;;;;;;;;5180280;27;20108;-54
2022/02/18 14:28:27;;;;;;;11.77;7.03;;;;;;;;;;5180298;27;20070;-54
2022/02/18 14:30:56;;;;;;;15.00;10.07;;;;;;;;;;5161535;27;20085;-53
2022/02/18 14:33:29;;;;;;;8.98;6.70;;;;;;;;;;5180392;27;20168;-52
2022/02/18 14:35:57;;;;;;;10.10;6.35;;;;;;;;;;5180329;27;20086;-49
2022/02/18 14:38:23;;;;;;;10.48;5.12;;;;;;;;;;5180312;27;20182;-53
2022/02/18 14:40:55;;;;;;;7.62;4.20;;;;;;;;;;5180309;27;20085;-56
2022/02/18 14:43:22;;;;;;;6.00;4.62;;;;;;;;;;5109938;27;20093;-56
2022/02/18 14:45:48;;;;;;;8.43;5.95;;;;;;;;;;5180443;27;20086;-53
2022/02/18 14:48:15;;;;;;;8.63;5.75;;;;;;;;;;5180197;27;20403;-50
2022/02/18 14:50:42;;;;;;;6.22;5.43;;;;;;;;;;5180265;27;20062;-55
2022/02/18 14:53:11;;;;;;;8.35;5.87;;;;;;;;;;5180225;27;20513;-55
2022/02/18 14:55:37;;;;;;;8.15;6.62;;;;;;;;;;5180329;27;20086;-55
2022/02/18 14:58:04;;;;;;;16.65;10.55;;;;;;;;;;5178778;27;20058;-50
2022/02/18 15:00:32;;;;;;;8.85;6.47;;;;;;;;;;5160681;27;20077;-55